createdAt,value
2022-08-26T00:01:44.233Z,99.90
2022-08-26T00:04:12.203Z,99.90
2022-08-26T00:06:42.731Z,99.90
2022-08-26T00:09:16.225Z,99.90
2022-08-26T00:11:44.687Z,99.90
2022-08-26T00:14:13.606Z,99.90
2022-08-26T00:16:40.998Z,99.90
2022-08-26T00:19:14.276Z,99.90
2022-08-26T00:21:41.343Z,99.90
2022-08-26T00:24:07.975Z,99.90
2022-08-26T00:26:34.840Z,99.90
2022-08-26T00:29:01.694Z,99.90
2022-08-26T00:31:28.621Z,99.90
2022-08-26T00:33:57.992Z,99.90
2022-08-26T00:36:24.744Z,99.90
2022-08-26T00:38:56.185Z,99.90
2022-08-26T00:41:22.737Z,99.90
2022-08-26T00:43:50.870Z,99.90
2022-08-26T00:46:21.648Z,99.90
2022-08-26T00:48:52.277Z,99.90
2022-08-26T00:51:23.010Z,99.90
2022-08-26T00:53:58.755Z,99.90
2022-08-26T00:56:38.091Z,99.90
2022-08-26T00:59:11.568Z,99.90
2022-08-26T01:01:41.327Z,99.90
2022-08-26T01:04:09.513Z,99.90
2022-08-26T01:06:36.554Z,99.90
2022-08-26T01:09:03.818Z,99.90
2022-08-26T01:11:31.798Z,99.90
2022-08-26T01:14:02.727Z,99.90
2022-08-26T01:16:30.139Z,99.90
2022-08-26T01:19:03.489Z,99.90
2022-08-26T01:21:41.285Z,99.90
2022-08-26T01:24:10.337Z,99.90
2022-08-26T01:26:43.363Z,99.90
2022-08-26T01:29:15.565Z,99.90
2022-08-26T01:31:49.617Z,99.90
2022-08-26T01:34:25.246Z,99.90
2022-08-26T01:37:16.215Z,99.90
2022-08-26T01:39:45.133Z,99.90
2022-08-26T01:42:14.971Z,99.90
2022-08-26T01:44:53.561Z,99.90
2022-08-26T01:47:23.437Z,99.90
2022-08-26T01:49:53.655Z,99.90
2022-08-26T01:52:28.058Z,99.90
2022-08-26T01:54:56.882Z,99.90
2022-08-26T01:57:24.905Z,99.90
2022-08-26T01:59:55.072Z,99.90
2022-08-26T02:02:22.639Z,99.90
2022-08-26T02:04:57.219Z,99.90
2022-08-26T02:07:26.571Z,99.90
2022-08-26T02:09:53.327Z,99.90
2022-08-26T02:12:20.459Z,99.90
2022-08-26T02:14:53.586Z,99.90
2022-08-26T02:17:24.576Z,99.90
2022-08-26T02:19:51.757Z,99.90
2022-08-26T02:22:20.832Z,99.90
2022-08-26T02:24:52.593Z,99.90
2022-08-26T02:27:32.839Z,99.90
2022-08-26T02:30:32.483Z,99.90
2022-08-26T02:33:03.623Z,99.90
2022-08-26T02:35:31.514Z,99.90
2022-08-26T02:37:58.854Z,99.90
2022-08-26T02:40:30.616Z,99.90
2022-08-26T02:42:57.894Z,99.90
2022-08-26T02:45:26.158Z,99.90
2022-08-26T02:47:53.315Z,99.90
2022-08-26T02:50:20.679Z,99.90
2022-08-26T02:52:48.559Z,99.90
2022-08-26T02:55:16.143Z,99.90
2022-08-26T02:57:43.242Z,99.90
2022-08-26T03:00:12.465Z,99.90
2022-08-26T03:02:39.327Z,99.90
2022-08-26T03:05:06.493Z,99.90
2022-08-26T03:07:33.121Z,99.90
2022-08-26T03:10:00.862Z,99.90
2022-08-26T03:12:27.673Z,99.90
2022-08-26T03:14:54.337Z,99.90
2022-08-26T03:17:20.980Z,99.90
2022-08-26T03:19:50.695Z,99.90
2022-08-26T03:22:19.565Z,99.90
2022-08-26T03:24:47.180Z,99.90
2022-08-26T03:27:14.386Z,99.90
2022-08-26T03:30:00.111Z,99.90
2022-08-26T03:32:26.930Z,99.90
2022-08-26T03:34:54.188Z,99.90
2022-08-26T03:37:21.494Z,99.90
2022-08-26T03:39:48.679Z,99.90
2022-08-26T03:42:17.537Z,99.90
2022-08-26T03:44:48.796Z,99.90
2022-08-26T03:47:15.765Z,99.90
2022-08-26T03:49:42.465Z,99.90
2022-08-26T03:52:09.160Z,99.90
2022-08-26T03:54:36.538Z,99.90
2022-08-26T03:57:03.474Z,99.90
2022-08-26T03:59:30.070Z,99.90
2022-08-26T04:01:56.702Z,99.90
2022-08-26T04:04:24.557Z,99.90
2022-08-26T04:06:58.133Z,99.90
2022-08-26T04:09:25.649Z,99.90
2022-08-26T04:11:52.226Z,99.90
2022-08-26T04:14:21.892Z,99.90
2022-08-26T04:16:49.772Z,99.90
2022-08-26T04:19:17.418Z,99.90
2022-08-26T04:21:47.823Z,99.90
2022-08-26T04:24:16.145Z,99.90
2022-08-26T04:26:44.418Z,99.90
2022-08-26T04:29:21.282Z,99.90
2022-08-26T04:31:48.323Z,99.90
2022-08-26T04:34:16.017Z,99.90
2022-08-26T04:36:44.291Z,99.90
2022-08-26T04:39:12.417Z,99.90
2022-08-26T04:41:39.775Z,99.90
2022-08-26T04:44:07.660Z,99.90
2022-08-26T04:46:34.439Z,99.90
2022-08-26T04:49:02.461Z,99.90
2022-08-26T04:51:29.097Z,99.90
2022-08-26T04:53:59.661Z,99.90
2022-08-26T04:56:29.531Z,99.90
2022-08-26T04:58:56.499Z,99.90
2022-08-26T05:01:23.947Z,99.90
2022-08-26T05:03:51.055Z,99.90
2022-08-26T05:06:19.495Z,99.90
2022-08-26T05:08:46.435Z,99.90
2022-08-26T05:11:13.476Z,99.90
2022-08-26T05:13:41.287Z,99.90
2022-08-26T05:16:13.284Z,99.90
2022-08-26T05:18:40.735Z,99.90
2022-08-26T05:21:20.453Z,99.90
2022-08-26T05:23:49.009Z,99.90
2022-08-26T05:26:16.554Z,99.90
2022-08-26T05:28:43.288Z,99.90
2022-08-26T05:31:23.289Z,99.90
2022-08-26T05:33:50.303Z,99.90
2022-08-26T05:36:20.732Z,99.90
2022-08-26T05:38:48.724Z,99.90
2022-08-26T05:41:34.579Z,99.90
2022-08-26T05:44:08.497Z,99.90
2022-08-26T05:46:36.656Z,99.90
2022-08-26T05:49:04.923Z,99.90
2022-08-26T05:51:34.883Z,99.90
2022-08-26T05:54:03.617Z,99.90
2022-08-26T05:56:30.672Z,99.90
2022-08-26T05:58:58.560Z,99.90
2022-08-26T06:01:28.036Z,99.90
2022-08-26T06:04:01.801Z,99.90
2022-08-26T06:06:34.698Z,99.90
2022-08-26T06:09:04.944Z,99.90
2022-08-26T06:11:32.521Z,99.90
2022-08-26T06:14:03.839Z,99.90
2022-08-26T06:16:34.573Z,99.90
2022-08-26T06:19:03.020Z,99.90
2022-08-26T06:21:35.160Z,99.90
2022-08-26T06:24:26.941Z,99.90
2022-08-26T06:26:56.891Z,99.90
2022-08-26T06:29:25.785Z,99.90
2022-08-26T06:31:53.986Z,99.90
2022-08-26T06:34:21.148Z,99.90
2022-08-26T06:36:49.430Z,99.90
2022-08-26T06:39:19.697Z,99.90
2022-08-26T06:41:47.315Z,99.90
2022-08-26T06:44:15.160Z,99.90
2022-08-26T06:46:43.220Z,99.90
2022-08-26T06:49:12.570Z,99.90
2022-08-26T06:51:40.777Z,99.90
2022-08-26T06:54:10.189Z,99.90
2022-08-26T06:56:43.730Z,99.90
2022-08-26T06:59:11.775Z,99.90
2022-08-26T07:01:44.767Z,99.90
2022-08-26T07:04:14.488Z,99.90
2022-08-26T07:06:50.016Z,99.90
2022-08-26T07:09:19.164Z,99.90
2022-08-26T07:11:46.227Z,99.90
2022-08-26T07:14:13.195Z,99.90
2022-08-26T07:16:41.212Z,99.90
2022-08-26T07:19:11.267Z,99.90
2022-08-26T07:21:40.208Z,99.90
2022-08-26T07:24:07.960Z,99.90
2022-08-26T07:26:35.130Z,99.90
2022-08-26T07:29:02.614Z,99.90
2022-08-26T07:31:39.441Z,99.90
2022-08-26T07:34:09.311Z,99.90
2022-08-26T07:36:36.592Z,99.90
2022-08-26T07:39:03.749Z,99.90
2022-08-26T07:44:02.347Z,99.90
2022-08-26T07:46:31.122Z,99.90
2022-08-26T07:48:58.231Z,99.90
2022-08-26T07:51:25.459Z,99.90
2022-08-26T07:53:53.182Z,99.90
2022-08-26T07:56:21.655Z,99.90
2022-08-26T07:58:51.753Z,99.90
2022-08-26T08:01:20.440Z,99.90
2022-08-26T08:03:50.506Z,99.90
2022-08-26T08:06:18.707Z,99.90
2022-08-26T08:08:46.364Z,99.90
2022-08-26T08:11:14.241Z,99.90
2022-08-26T08:13:41.272Z,99.90
2022-08-26T08:16:12.483Z,99.90
2022-08-26T08:18:40.178Z,99.90
2022-08-26T08:21:24.187Z,99.90
2022-08-26T08:23:53.479Z,99.90
2022-08-26T08:26:21.006Z,99.90
2022-08-26T08:28:48.162Z,99.90
2022-08-26T08:34:21.564Z,99.90
2022-08-26T08:36:48.963Z,99.90
2022-08-26T08:39:16.712Z,99.90
2022-08-26T08:41:48.688Z,99.90
2022-08-26T08:44:21.704Z,99.90
2022-08-26T08:46:58.502Z,99.90
2022-08-26T08:49:25.906Z,99.90
2022-08-26T09:12:29.770Z,99.90
2022-08-26T09:15:11.221Z,99.90
2022-08-26T09:18:06.945Z,99.90
2022-08-26T09:20:48.320Z,99.90
2022-08-26T09:23:15.835Z,99.90
2022-08-26T09:25:52.318Z,99.90
2022-08-26T09:28:21.310Z,99.90
2022-08-26T09:31:21.256Z,99.90
2022-08-26T09:34:17.294Z,99.90
2022-08-26T09:36:55.638Z,99.90
2022-08-26T09:39:28.002Z,99.90
2022-08-26T09:42:25.388Z,99.90
2022-08-26T09:45:04.207Z,99.90
2022-08-26T09:47:52.645Z,99.90
2022-08-26T09:50:52.219Z,99.90
2022-08-26T09:53:28.507Z,99.90
2022-08-26T09:56:16.963Z,99.90
2022-08-26T09:58:47.171Z,99.90
2022-08-26T10:01:38.158Z,99.90
2022-08-26T10:04:10.442Z,99.90
2022-08-26T10:07:05.038Z,99.90
2022-08-26T10:09:36.084Z,99.90
2022-08-26T10:12:08.220Z,99.90
2022-08-26T10:17:29.118Z,99.90
2022-08-26T10:20:05.383Z,99.90
2022-08-26T10:22:55.142Z,99.90
2022-08-26T10:25:28.271Z,99.90
2022-08-26T10:28:04.725Z,99.90
2022-08-26T10:30:38.455Z,99.90
2022-08-26T10:33:08.835Z,99.90
2022-08-26T10:35:40.882Z,99.90
2022-08-26T10:38:18.473Z,99.90
2022-08-26T10:40:53.285Z,99.90
2022-08-26T10:43:53.004Z,99.90
2022-08-26T10:46:24.120Z,99.90
2022-08-26T10:49:00.596Z,99.90
2022-08-26T10:51:36.423Z,99.90
2022-08-26T10:54:12.979Z,99.90
2022-08-26T10:56:57.883Z,99.90
2022-08-26T10:59:30.671Z,99.90
2022-08-26T11:02:28.015Z,99.90
2022-08-26T11:05:05.359Z,99.90
2022-08-26T11:07:35.379Z,99.90
2022-08-26T11:10:16.625Z,99.90
2022-08-26T11:12:45.263Z,99.90
2022-08-26T11:15:24.863Z,99.90
2022-08-26T11:17:51.587Z,99.90
2022-08-26T11:20:33.306Z,99.90
2022-08-26T11:23:28.098Z,99.90
2022-08-26T11:26:10.280Z,99.90
2022-08-26T11:28:44.240Z,99.90
2022-08-26T11:31:18.856Z,99.90
2022-08-26T11:33:47.845Z,99.90
2022-08-26T11:36:42.872Z,99.90
2022-08-26T11:39:24.098Z,99.90
2022-08-26T11:41:53.768Z,99.90
2022-08-26T11:44:23.900Z,99.90
2022-08-26T11:47:12.000Z,99.90
2022-08-26T11:49:40.061Z,99.90
2022-08-26T11:52:14.366Z,99.90
2022-08-26T11:54:41.012Z,99.90
2022-08-26T11:57:12.236Z,99.90
2022-08-26T11:59:40.697Z,99.90
2022-08-26T12:02:17.769Z,99.90
2022-08-26T12:04:48.801Z,99.90
2022-08-26T12:07:16.502Z,99.90
2022-08-26T12:09:57.957Z,99.90
2022-08-26T12:12:35.242Z,99.40
2022-08-26T12:15:15.811Z,97.70
2022-08-26T12:17:44.191Z,98.30
2022-08-26T12:20:19.225Z,97.80
2022-08-26T12:22:48.119Z,98.30
2022-08-26T12:25:23.609Z,97.90
2022-08-26T12:27:53.653Z,96.60
2022-08-26T12:30:25.991Z,96.80
2022-08-26T12:33:22.752Z,96.60
2022-08-26T12:35:54.370Z,96.40
2022-08-26T12:38:24.286Z,96.10
2022-08-26T12:40:50.927Z,96.90
2022-08-26T12:43:40.257Z,95.40
2022-08-26T12:46:08.961Z,96.90
2022-08-26T12:48:38.421Z,99.10
2022-08-26T12:51:08.948Z,98.70
2022-08-26T12:53:43.063Z,99.20
2022-08-26T12:56:38.976Z,98.90
2022-08-26T12:59:17.398Z,99.10
2022-08-26T13:01:44.717Z,99.60
2022-08-26T13:07:13.674Z,99.90
2022-08-26T13:09:40.319Z,99.90
2022-08-26T13:12:07.039Z,99.90
2022-08-26T13:14:33.629Z,99.90
2022-08-26T13:17:00.248Z,99.90
2022-08-26T13:19:26.931Z,99.90
2022-08-26T13:21:56.299Z,99.90
2022-08-26T13:24:34.343Z,99.90
2022-08-26T13:27:02.410Z,99.90
2022-08-26T13:29:29.092Z,99.90
2022-08-26T13:31:58.263Z,99.90
2022-08-26T13:34:25.101Z,99.90
2022-08-26T13:36:55.121Z,99.90
2022-08-26T13:39:23.036Z,99.90
2022-08-26T13:41:49.978Z,99.90
2022-08-26T13:44:17.283Z,99.90
2022-08-26T13:49:15.522Z,99.90
2022-08-26T13:51:42.142Z,99.90
2022-08-26T13:54:08.930Z,99.90
2022-08-26T13:56:36.159Z,99.90
2022-08-26T13:59:03.345Z,99.90
2022-08-26T14:01:32.026Z,99.90
2022-08-26T14:03:59.490Z,99.90
2022-08-26T14:06:26.344Z,99.90
2022-08-26T14:08:52.974Z,99.90
2022-08-26T14:11:19.654Z,99.90
2022-08-26T14:13:46.247Z,99.90
2022-08-26T14:16:25.431Z,99.90
2022-08-26T14:18:52.681Z,99.90
2022-08-26T14:21:19.285Z,99.90
2022-08-26T14:23:46.038Z,99.90
2022-08-26T14:29:00.461Z,99.90
2022-08-26T14:31:29.319Z,99.90
2022-08-26T14:33:59.469Z,99.90
2022-08-26T14:36:28.912Z,99.20
2022-08-26T14:38:58.242Z,99.10
2022-08-26T14:41:25.348Z,99.20
2022-08-26T14:43:57.830Z,99.60
2022-08-26T14:46:28.603Z,99.10
2022-08-26T14:49:01.564Z,99.00
2022-08-26T14:51:29.177Z,98.70
2022-08-26T14:54:13.922Z,98.50
2022-08-26T14:56:46.347Z,98.40
2022-08-26T14:59:17.359Z,99.00
2022-08-26T15:01:44.683Z,99.20
2022-08-26T15:04:11.548Z,99.90
2022-08-26T15:06:38.653Z,99.90
2022-08-26T15:09:05.330Z,99.90
2022-08-26T15:11:32.260Z,99.90
2022-08-26T15:13:59.903Z,99.90
2022-08-26T15:16:29.021Z,99.90
2022-08-26T15:18:56.190Z,99.90
2022-08-26T15:21:23.384Z,99.90
2022-08-26T15:23:51.536Z,99.90
2022-08-26T15:26:19.413Z,99.90
2022-08-26T15:28:46.497Z,99.90
2022-08-26T15:31:13.460Z,99.90
2022-08-26T15:33:40.369Z,99.90
2022-08-26T15:38:38.863Z,99.90
2022-08-26T15:41:06.991Z,99.90
2022-08-26T15:43:33.627Z,99.90
2022-08-26T15:46:00.994Z,99.90
2022-08-26T15:48:28.163Z,99.90
2022-08-26T15:50:57.994Z,99.90
2022-08-26T15:53:24.933Z,99.90
2022-08-26T15:55:54.958Z,99.90
2022-08-26T15:58:24.753Z,99.90
2022-08-26T16:00:53.729Z,99.90
2022-08-26T16:03:20.598Z,99.90
2022-08-26T16:05:47.964Z,99.90
2022-08-26T16:08:15.345Z,99.90
2022-08-26T16:10:49.956Z,99.90
2022-08-26T16:13:18.714Z,99.90
2022-08-26T16:15:45.708Z,99.90
2022-08-26T16:18:13.790Z,99.90
2022-08-26T16:21:12.948Z,99.90
2022-08-26T16:23:36.392Z,99.90
2022-08-26T16:26:24.076Z,99.90
2022-08-26T16:28:51.045Z,99.90
2022-08-26T16:31:18.139Z,99.90
2022-08-26T16:33:44.859Z,99.90
2022-08-26T16:36:11.916Z,99.90
2022-08-26T16:38:39.863Z,99.90
2022-08-26T16:41:07.282Z,99.90
2022-08-26T16:43:34.556Z,99.90
2022-08-26T16:46:01.219Z,99.90
2022-08-26T16:48:27.869Z,99.90
2022-08-26T16:50:55.360Z,99.90
2022-08-26T16:53:22.390Z,99.90
2022-08-26T16:55:50.097Z,99.90
2022-08-26T16:58:17.061Z,99.90
2022-08-26T17:00:43.993Z,99.90
2022-08-26T17:03:10.635Z,99.90
2022-08-26T17:05:37.497Z,99.90
2022-08-26T17:08:04.927Z,99.90
2022-08-26T17:10:32.136Z,99.90
2022-08-26T17:12:58.776Z,99.90
2022-08-26T17:15:25.863Z,99.90
2022-08-26T17:17:53.646Z,99.90
2022-08-26T17:20:21.087Z,99.90
2022-08-26T17:22:49.540Z,99.90
2022-08-26T17:25:24.407Z,99.90
2022-08-26T17:27:51.655Z,99.90
2022-08-26T17:30:19.075Z,99.90
2022-08-26T17:32:46.261Z,99.90
2022-08-26T17:35:14.122Z,99.90
2022-08-26T17:37:41.469Z,99.90
2022-08-26T17:40:11.655Z,99.90
2022-08-26T17:42:39.702Z,99.90
2022-08-26T17:45:07.217Z,99.90
2022-08-26T17:47:34.421Z,99.90
2022-08-26T17:50:01.410Z,99.90
2022-08-26T17:52:28.920Z,99.90
2022-08-26T17:54:56.348Z,99.90
2022-08-26T17:57:23.978Z,99.90
2022-08-26T17:59:50.968Z,99.90
2022-08-26T18:02:20.844Z,99.90
2022-08-26T18:04:47.549Z,99.90
2022-08-26T18:07:14.796Z,99.90
2022-08-26T18:09:41.439Z,99.90
2022-08-26T18:12:08.231Z,99.90
2022-08-26T18:14:35.258Z,99.90
2022-08-26T18:17:02.063Z,99.90
2022-08-26T18:19:29.677Z,99.90
2022-08-26T18:21:56.730Z,99.90
2022-08-26T18:24:23.594Z,99.90
2022-08-26T18:26:50.993Z,99.90
2022-08-26T18:29:19.418Z,99.90
2022-08-26T18:31:46.598Z,99.90
2022-08-26T18:34:15.383Z,99.90
2022-08-26T18:36:42.795Z,99.90
2022-08-26T18:39:11.491Z,99.90
2022-08-26T18:41:47.467Z,99.90
2022-08-26T18:44:16.611Z,99.90
2022-08-26T18:46:44.394Z,99.90
2022-08-26T18:49:16.023Z,99.90
2022-08-26T18:51:43.279Z,99.90
2022-08-26T18:54:10.607Z,99.90
2022-08-26T18:56:39.293Z,99.90
2022-08-26T18:59:07.929Z,99.90
2022-08-26T19:01:36.293Z,99.90
2022-08-26T19:04:05.056Z,99.90
2022-08-26T19:06:35.319Z,99.90
2022-08-26T19:09:04.262Z,99.90
2022-08-26T19:11:32.483Z,99.90
2022-08-26T19:14:08.292Z,99.90
2022-08-26T19:16:35.989Z,99.90
2022-08-26T19:19:02.787Z,99.90
2022-08-26T19:21:29.744Z,99.90
2022-08-26T19:23:58.425Z,99.90
2022-08-26T19:26:26.318Z,99.90
2022-08-26T19:28:53.223Z,99.90
2022-08-26T19:31:20.149Z,99.90
2022-08-26T19:33:46.838Z,99.90
2022-08-26T19:36:17.364Z,99.90
2022-08-26T19:38:45.418Z,99.90
2022-08-26T19:41:18.134Z,99.90
2022-08-26T19:43:44.729Z,99.90
2022-08-26T19:46:18.690Z,99.90
2022-08-26T19:48:46.434Z,99.90
2022-08-26T19:51:20.354Z,99.90
2022-08-26T19:53:48.583Z,99.90
2022-08-26T19:56:15.323Z,99.90
2022-08-26T19:58:42.389Z,99.90
2022-08-26T20:01:09.773Z,99.90
2022-08-26T20:03:37.406Z,99.90
2022-08-26T20:06:06.885Z,99.90
2022-08-26T20:08:34.980Z,99.90
2022-08-26T20:11:04.771Z,99.90
2022-08-26T20:13:32.170Z,99.90
2022-08-26T20:15:58.795Z,99.90
2022-08-26T20:18:44.113Z,99.90
2022-08-26T20:21:26.401Z,99.90
2022-08-26T20:24:00.361Z,99.90
2022-08-26T20:26:29.146Z,99.90
2022-08-26T20:28:56.205Z,99.90
2022-08-26T20:31:23.906Z,99.90
2022-08-26T20:33:51.491Z,99.90
2022-08-26T20:36:20.374Z,99.90
2022-08-26T20:38:48.346Z,99.90
2022-08-26T20:41:15.776Z,99.90
2022-08-26T20:43:42.925Z,99.90
2022-08-26T20:46:17.960Z,99.90
2022-08-26T20:48:47.951Z,99.90
2022-08-26T20:51:16.077Z,99.90
2022-08-26T20:53:44.102Z,99.90
2022-08-26T20:56:12.615Z,99.90
2022-08-26T20:58:40.813Z,99.90
2022-08-26T21:01:08.208Z,99.90
2022-08-26T21:03:36.109Z,99.90
2022-08-26T21:06:03.755Z,99.90
2022-08-26T21:08:32.696Z,99.90
2022-08-26T21:11:00.661Z,99.90
2022-08-26T21:13:29.002Z,99.90
2022-08-26T21:15:59.757Z,99.90
2022-08-26T21:18:26.479Z,99.90
2022-08-26T21:20:53.215Z,99.90
2022-08-26T21:23:19.814Z,99.90
2022-08-26T21:25:47.003Z,99.90
2022-08-26T21:28:13.627Z,99.90
2022-08-26T21:30:41.339Z,99.90
2022-08-26T21:33:08.637Z,99.90
2022-08-26T21:35:35.597Z,99.90
2022-08-26T21:38:02.272Z,99.90
2022-08-26T21:40:28.933Z,99.90
2022-08-26T21:42:55.605Z,99.90
2022-08-26T21:45:22.505Z,99.90
2022-08-26T21:47:49.194Z,99.90
2022-08-26T21:50:15.834Z,99.90
2022-08-26T21:52:42.466Z,99.90
2022-08-26T21:55:11.546Z,99.90
2022-08-26T21:57:38.484Z,99.90
2022-08-26T22:00:08.813Z,99.90
2022-08-26T22:02:36.959Z,99.90
2022-08-26T22:05:03.987Z,99.90
2022-08-26T22:07:30.636Z,99.90
2022-08-26T22:09:57.214Z,99.90
2022-08-26T22:12:24.131Z,99.90
2022-08-26T22:14:50.730Z,99.90
2022-08-26T22:17:17.465Z,99.90
2022-08-26T22:19:46.415Z,99.90
2022-08-26T22:22:14.291Z,99.90
2022-08-26T22:24:43.123Z,99.90
2022-08-26T22:27:11.809Z,99.90
2022-08-26T22:29:38.610Z,99.90
2022-08-26T22:32:05.572Z,99.90
2022-08-26T22:34:32.231Z,99.90
2022-08-26T22:36:59.476Z,99.90
2022-08-26T22:39:26.555Z,99.90
2022-08-26T22:41:54.197Z,99.90
2022-08-26T22:44:22.061Z,99.90
2022-08-26T22:46:50.060Z,99.90
2022-08-26T22:49:16.814Z,99.90
2022-08-26T22:51:45.130Z,99.90
2022-08-26T22:54:12.136Z,99.90
2022-08-26T22:56:39.380Z,99.90
2022-08-26T22:59:07.889Z,99.90
2022-08-26T23:01:40.869Z,99.90
2022-08-26T23:04:08.528Z,99.90
2022-08-26T23:06:40.054Z,99.90
2022-08-26T23:09:07.556Z,99.90
2022-08-26T23:11:34.808Z,99.90
2022-08-26T23:14:02.297Z,99.90
2022-08-26T23:16:38.009Z,99.90
2022-08-26T23:19:06.410Z,99.90
2022-08-26T23:21:33.278Z,99.90
2022-08-26T23:24:00.884Z,99.90
2022-08-26T23:26:27.630Z,99.90
2022-08-26T23:28:54.909Z,99.90
2022-08-26T23:31:21.533Z,99.90
2022-08-26T23:34:06.624Z,99.90
2022-08-26T23:36:34.365Z,99.90
2022-08-26T23:39:02.480Z,99.90
2022-08-26T23:41:29.100Z,99.90
2022-08-26T23:43:55.803Z,99.90
2022-08-26T23:46:22.457Z,99.90
2022-08-26T23:48:49.030Z,99.90
2022-08-26T23:51:34.488Z,99.90
2022-08-26T23:54:01.117Z,99.90
2022-08-26T23:56:28.538Z,99.90
2022-08-26T23:58:55.329Z,99.90
